Time;durP1;ratioP1;P1;durP2;ratioP2;P2;SDS_P1;SDS_P2;PMS_P1;PMS_P2;Temp;Humidity;BMP_temperature;BMP_pressure;BME280_temperature;BME280_humidity;BME280_pressure;Samples;Min_cycle;Max_cycle;Signal;HPM_P1;HPM_P2
2021/03/13 00:00:54;;;;;;;9.63;6.13;;;256.20;2048.00;;;;;;4879596;29;20117;-69
2021/03/13 00:03:20;;;;;;;9.15;6.05;;;256.20;2048.00;;;;;;4877835;29;20484;-65
2021/03/13 00:05:46;;;;;;;9.63;6.53;;;256.20;2022.40;;;;;;4868547;29;20041;-71
2021/03/13 00:08:13;;;;;;;9.98;5.88;;;256.20;2048.00;;;;;;4864859;29;20037;-68
2021/03/13 00:10:41;;;;;;;8.35;5.90;;;256.20;2022.40;;;;;;4864855;29;20443;-72
2021/03/13 00:13:07;;;;;;;9.45;5.78;;;256.20;2022.40;;;;;;4864453;29;20029;-72
2021/03/13 00:15:35;;;;;;;9.32;5.50;;;256.10;2022.40;;;;;;4864757;29;20404;-72
2021/03/13 00:18:02;;;;;;;6.55;5.22;;;256.10;2022.40;;;;;;4864429;29;20045;-71
2021/03/13 00:20:29;;;;;;;8.35;5.30;;;256.10;2022.40;;;;;;4864219;29;20170;-72
2021/03/13 00:22:57;;;;;;;8.07;5.07;;;256.10;2022.40;;;;;;4864527;29;20198;-73
2021/03/13 00:25:24;;;;;;;8.48;5.68;;;256.10;2022.40;;;;;;4864516;29;20035;-72
2021/03/13 00:27:51;;;;;;;7.28;5.15;;;256.10;2022.40;;;;;;4864241;29;20460;-73
2021/03/13 00:30:20;;;;;;;10.80;5.07;;;256.10;2022.40;;;;;;4868676;29;20033;-72
2021/03/13 00:32:49;;;;;;;7.03;4.30;;;256.10;2022.40;;;;;;4864124;29;20076;-71
2021/03/13 00:35:15;;;;;;;5.88;4.30;;;256.10;2022.40;;;;;;4864388;29;20077;-69
2021/03/13 00:37:42;;;;;;;5.13;4.10;;;256.10;2022.40;;;;;;4876474;29;20040;-72
2021/03/13 00:40:11;;;;;;;7.28;3.97;;;256.00;2022.40;;;;;;4876803;29;20025;-68
2021/03/13 00:42:37;;;;;;;7.20;4.60;;;256.00;2022.40;;;;;;4876580;29;20045;-68
2021/03/13 00:45:03;;;;;;;6.55;4.47;;;256.00;2022.40;;;;;;4882563;29;20092;-73
2021/03/13 00:47:29;;;;;;;8.43;5.15;;;256.00;2022.40;;;;;;4883462;29;20032;-73
2021/03/13 00:49:57;;;;;;;6.10;4.65;;;256.00;2022.40;;;;;;4882554;29;20025;-69
2021/03/13 00:52:23;;;;;;;8.05;5.40;;;256.00;2022.40;;;;;;4882532;29;20365;-73
2021/03/13 00:54:49;;;;;;;9.13;6.45;;;231.30;2048.00;;;;;;4874185;29;20035;-72
2021/03/13 00:57:15;;;;;;;8.18;6.32;;;256.00;2022.40;;;;;;4876780;29;20033;-73
2021/03/13 00:59:41;;;;;;;10.55;6.60;;;231.30;2048.00;;;;;;4871035;29;20783;-74
2021/03/13 01:02:06;;;;;;;12.75;6.50;;;256.10;2048.00;;;;;;4873463;29;20022;-73
2021/03/13 01:04:32;;;;;;;9.68;5.75;;;231.30;2048.00;;;;;;4871807;29;20045;-73
2021/03/13 01:06:58;;;;;;;9.68;5.72;;;231.30;2022.40;;;;;;4874168;29;20575;-74
2021/03/13 01:09:24;;;;;;;9.02;5.90;;;231.30;2022.40;;;;;;4872931;29;20029;-72
2021/03/13 01:11:50;;;;;;;7.97;5.07;;;231.30;2022.40;;;;;;4871943;29;20052;-75
2021/03/13 01:14:16;;;;;;;7.63;5.35;;;231.30;2022.40;;;;;;4875498;29;20045;-70
2021/03/13 01:16:41;;;;;;;7.53;4.82;;;231.30;2022.40;;;;;;4871735;29;20425;-75
2021/03/13 01:19:07;;;;;;;8.85;5.10;;;231.30;2022.40;;;;;;4872590;29;20063;-74
2021/03/13 01:21:33;;;;;;;5.22;4.35;;;231.30;2022.40;;;;;;4872210;29;20038;-74
2021/03/13 01:23:59;;;;;;;7.75;4.40;;;231.30;2022.40;;;;;;4870597;29;20033;-71
2021/03/13 01:26:25;;;;;;;8.32;4.68;;;231.30;2022.40;;;;;;4874322;29;20041;-69
2021/03/13 01:28:51;;;;;;;6.22;4.28;;;231.30;2022.40;;;;;;4872433;29;20043;-72
2021/03/13 01:31:17;;;;;;;4.40;3.38;;;231.20;2022.40;;;;;;4873077;29;20026;-72
2021/03/13 01:33:43;;;;;;;6.78;4.38;;;231.20;2022.40;;;;;;4870295;29;20387;-72
2021/03/13 01:36:08;;;;;;;5.32;3.67;;;231.20;1996.80;;;;;;4872983;29;20049;-71
2021/03/13 01:38:34;;;;;;;4.60;3.80;;;231.20;2022.40;;;;;;4872888;29;20125;-73
2021/03/13 01:41:01;;;;;;;7.13;4.25;;;231.20;2022.40;;;;;;4872241;29;20033;-65
2021/03/13 01:43:26;;;;;;;6.35;4.00;;;231.10;2022.40;;;;;;4872545;29;20037;-68
2021/03/13 01:45:52;;;;;;;6.40;4.00;;;231.10;2022.40;;;;;;4874817;29;20033;-65
2021/03/13 01:48:18;;;;;;;5.70;3.58;;;231.10;2022.40;;;;;;4872317;29;20036;-70
2021/03/13 01:51:01;;;;;;;5.80;3.67;;;231.10;2022.40;;;;;;4867950;29;20460;-71
2021/03/13 01:53:27;;;;;;;4.15;3.47;;;231.10;2022.40;;;;;;4878854;29;20033;-73
2021/03/13 01:55:53;;;;;;;5.80;4.10;;;231.10;2022.40;;;;;;4881523;29;20037;-72
2021/03/13 01:58:19;;;;;;;5.13;3.80;;;231.10;2022.40;;;;;;4881306;29;20543;-72
2021/03/13 02:00:45;;;;;;;6.50;4.15;;;231.10;2022.40;;;;;;4881298;29;20116;-73
2021/03/13 02:03:11;;;;;;;4.47;3.42;;;231.10;2022.40;;;;;;4881740;29;20025;-76
2021/03/13 02:05:43;;;;;;;6.13;4.10;;;231.10;2022.40;;;;;;4881338;29;20476;-73
2021/03/13 02:08:15;;;;;;;5.88;4.13;;;231.10;2022.40;;;;;;4881115;29;20036;-70
2021/03/13 02:11:02;;;;;;;5.00;3.53;;;231.10;2022.40;;;;;;4881321;29;20033;-73
2021/03/13 02:13:33;;;;;;;6.05;4.00;;;231.00;2022.40;;;;;;4881195;29;20457;-75
2021/03/13 02:16:17;;;;;;;6.53;3.90;;;231.00;2022.40;;;;;;4881197;29;20059;-73
2021/03/13 02:19:21;;;;;;;4.05;3.40;;;231.00;2022.40;;;;;;4881059;29;20160;-72
2021/03/13 02:22:03;;;;;;;6.28;4.10;;;231.00;2022.40;;;;;;4860357;29;20145;-72
2021/03/13 02:24:29;;;;;;;7.18;4.03;;;231.00;2022.40;;;;;;4860285;29;20033;-72
2021/03/13 02:27:17;;;;;;;5.47;3.90;;;231.00;2022.40;;;;;;4860400;29;20086;-70
2021/03/13 02:30:04;;;;;;;5.90;3.33;;;231.00;2022.40;;;;;;4844916;29;20090;-72
2021/03/13 02:32:57;;;;;;;5.20;3.50;;;231.00;2022.40;;;;;;4860345;29;20065;-73
2021/03/13 02:35:36;;;;;;;4.38;3.70;;;230.90;2022.40;;;;;;4860026;29;20084;-72
2021/03/13 02:38:09;;;;;;;6.93;3.50;;;230.90;2048.00;;;;;;4859882;29;20552;-72
2021/03/13 02:40:37;;;;;;;5.18;3.83;;;230.90;2048.00;;;;;;4860076;29;20089;-71
2021/03/13 02:43:07;;;;;;;4.40;3.78;;;230.90;2022.40;;;;;;4859927;29;20481;-73
2021/03/13 02:45:37;;;;;;;6.10;4.00;;;230.90;2048.00;;;;;;4860170;29;20045;-73
2021/03/13 02:48:06;;;;;;;4.70;3.67;;;230.90;2022.40;;;;;;4860217;29;20090;-73
2021/03/13 02:50:33;;;;;;;7.57;4.65;;;230.90;2048.00;;;;;;4859799;29;20049;-73
2021/03/13 02:53:00;;;;;;;5.30;3.85;;;230.90;2022.40;;;;;;4859797;29;20029;-72
2021/03/13 02:55:26;;;;;;;5.22;3.78;;;230.90;2022.40;;;;;;4859836;29;20034;-73
2021/03/13 02:57:56;;;;;;;8.30;4.10;;;230.90;2022.40;;;;;;4868722;29;20047;-72
2021/03/13 03:00:23;;;;;;;5.13;3.85;;;230.90;2048.00;;;;;;4880484;29;20060;-73
2021/03/13 03:02:55;;;;;;;6.10;4.18;;;230.80;2022.40;;;;;;4880390;29;20026;-73
2021/03/13 03:05:23;;;;;;;7.40;4.15;;;230.80;2022.40;;;;;;4880290;29;20112;-72
2021/03/13 03:07:51;;;;;;;6.13;4.00;;;230.90;2022.40;;;;;;4880288;29;20054;-72
2021/03/13 03:10:19;;;;;;;6.22;4.28;;;230.80;2022.40;;;;;;4880292;29;20032;-72
2021/03/13 03:12:48;;;;;;;5.80;4.30;;;230.80;2022.40;;;;;;4880169;29;20539;-73
2021/03/13 03:15:17;;;;;;;6.75;4.50;;;230.80;2022.40;;;;;;4880377;29;20033;-75
2021/03/13 03:17:44;;;;;;;6.53;4.63;;;230.80;2048.00;;;;;;4880361;29;20029;-75
2021/03/13 03:20:12;;;;;;;7.82;4.95;;;230.80;2022.40;;;;;;4880240;29;20037;-72
2021/03/13 03:22:39;;;;;;;6.53;4.55;;;230.80;2022.40;;;;;;4880259;29;20040;-74
2021/03/13 03:25:07;;;;;;;5.35;4.32;;;230.80;2022.40;;;;;;4880687;29;20368;-75
2021/03/13 03:27:33;;;;;;;5.85;4.47;;;230.80;2022.40;;;;;;4880008;29;20429;-68
2021/03/13 03:29:59;;;;;;;5.93;4.68;;;230.70;2022.40;;;;;;4880666;29;20056;-76
2021/03/13 03:32:25;;;;;;;5.68;4.47;;;230.70;2022.40;;;;;;4879669;29;20029;-74
2021/03/13 03:34:51;;;;;;;6.43;4.72;;;230.70;2022.40;;;;;;4879966;29;20063;-75
2021/03/13 03:37:17;;;;;;;9.90;4.35;;;230.70;2048.00;;;;;;4879726;29;20040;-72
2021/03/13 03:39:42;;;;;;;7.05;4.50;;;230.70;2048.00;;;;;;4879807;29;20089;-73
2021/03/13 03:42:10;;;;;;;8.50;4.38;;;230.70;2022.40;;;;;;4879997;29;20025;-70
2021/03/13 03:44:46;;;;;;;6.60;4.90;;;230.70;2048.00;;;;;;4879911;29;20040;-70
2021/03/13 03:47:13;;;;;;;7.28;5.20;;;230.70;2048.00;;;;;;4879980;29;20104;-67
2021/03/13 03:49:40;;;;;;;6.63;4.93;;;230.60;2048.00;;;;;;4879798;29;20108;-75
2021/03/13 03:52:09;;;;;;;6.75;5.15;;;230.60;2022.40;;;;;;4879885;29;20041;-71
2021/03/13 03:54:38;;;;;;;5.32;4.38;;;230.60;2022.40;;;;;;4879644;29;20503;-70
2021/03/13 03:57:07;;;;;;;5.88;4.53;;;230.60;2048.00;;;;;;4880023;29;20543;-72
2021/03/13 03:59:34;;;;;;;6.47;4.85;;;230.60;2048.00;;;;;;4879652;29;20100;-71
2021/03/13 04:02:01;;;;;;;6.70;4.85;;;230.60;2048.00;;;;;;4879694;29;20026;-64
2021/03/13 04:04:29;;;;;;;6.40;4.50;;;230.60;2022.40;;;;;;4879805;29;20132;-64
2021/03/13 04:06:56;;;;;;;7.38;4.68;;;230.60;2022.40;;;;;;4879798;29;20053;-69
2021/03/13 04:09:25;;;;;;;6.40;4.72;;;230.60;2048.00;;;;;;4879748;29;20032;-71
2021/03/13 04:11:52;;;;;;;6.18;4.75;;;230.60;2048.00;;;;;;4879683;29;20113;-65
2021/03/13 04:14:17;;;;;;;8.02;5.95;;;230.60;2048.00;;;;;;4879733;29;20033;-64
2021/03/13 04:16:44;;;;;;;6.35;4.80;;;230.50;2048.00;;;;;;4879590;29;20376;-70
2021/03/13 04:19:10;;;;;;;6.82;4.68;;;230.50;2048.00;;;;;;4879362;29;20041;-70
2021/03/13 04:21:37;;;;;;;7.43;5.50;;;230.50;2048.00;;;;;;4879522;29;20357;-69
2021/03/13 04:24:03;;;;;;;9.55;5.85;;;230.50;2048.00;;;;;;4879480;29;20077;-64
2021/03/13 04:26:30;;;;;;;6.15;5.05;;;230.50;2048.00;;;;;;4879963;29;20037;-65
2021/03/13 04:28:56;;;;;;;8.95;5.72;;;230.40;2048.00;;;;;;4879745;29;20033;-75
2021/03/13 04:31:31;;;;;;;7.05;5.50;;;230.40;2048.00;;;;;;4879479;29;20490;-75
2021/03/13 04:33:59;;;;;;;9.60;6.28;;;230.40;2048.00;;;;;;4879378;29;20111;-75
2021/03/13 04:36:26;;;;;;;9.25;6.35;;;230.40;2048.00;;;;;;4879353;29;20041;-75
2021/03/13 04:38:55;;;;;;;8.30;5.68;;;230.40;2073.60;;;;;;4879423;29;20134;-66
2021/03/13 04:41:22;;;;;;;8.50;6.13;;;230.40;2073.60;;;;;;4879577;29;20104;-71
2021/03/13 04:43:49;;;;;;;7.97;6.10;;;230.40;2073.60;;;;;;4881777;29;20032;-75
2021/03/13 04:46:15;;;;;;;9.80;6.20;;;230.40;2073.60;;;;;;4882582;29;20029;-74
2021/03/13 04:48:41;;;;;;;8.63;5.55;;;230.40;2073.60;;;;;;4882570;29;20033;-64
2021/03/13 04:51:07;;;;;;;8.55;6.35;;;230.40;2073.60;;;;;;4882835;29;20029;-74
2021/03/13 04:53:33;;;;;;;12.18;7.22;;;230.40;2073.60;;;;;;4882815;29;20028;-75
2021/03/13 04:56:00;;;;;;;11.05;6.50;;;230.40;2073.60;;;;;;4882663;29;20499;-75
2021/03/13 04:58:26;;;;;;;10.05;7.05;;;230.40;2073.60;;;;;;4882548;29;20116;-71
2021/03/13 05:00:53;;;;;;;13.27;7.93;;;230.40;2073.60;;;;;;4882577;29;20035;-73
2021/03/13 05:03:19;;;;;;;13.15;8.13;;;230.40;2073.60;;;;;;4882359;29;20033;-65
2021/03/13 05:05:44;;;;;;;12.27;8.27;;;230.40;2073.60;;;;;;4882316;29;20025;-64
2021/03/13 05:08:10;;;;;;;11.88;7.63;;;230.40;2073.60;;;;;;4882510;29;20491;-77
2021/03/13 05:10:36;;;;;;;14.05;7.97;;;205.70;2073.60;;;;;;4882613;29;20357;-76
2021/03/13 05:13:02;;;;;;;13.52;8.07;;;205.70;2073.60;;;;;;4882109;29;20037;-64
2021/03/13 05:15:28;;;;;;;11.00;8.10;;;205.60;2099.20;;;;;;4882326;29;20033;-78
2021/03/13 05:17:54;;;;;;;10.52;7.60;;;205.70;2073.60;;;;;;4882291;29;20357;-78
2021/03/13 05:20:20;;;;;;;11.32;8.00;;;205.70;2099.20;;;;;;4882272;29;20037;-64
2021/03/13 05:22:50;;;;;;;15.38;8.25;;;205.70;2073.60;;;;;;4882158;29;20544;-78
2021/03/13 05:25:17;;;;;;;10.45;7.43;;;205.70;2073.60;;;;;;4882186;29;20033;-64
2021/03/13 05:28:04;;;;;;;10.10;7.65;;;205.70;2073.60;;;;;;4882234;29;20391;-64
2021/03/13 05:30:29;;;;;;;21.50;12.75;;;230.40;2073.60;;;;;;4881709;29;20067;-65
2021/03/13 05:32:55;;;;;;;23.38;13.50;;;205.70;2073.60;;;;;;4882056;29;20446;-65
2021/03/13 05:35:21;;;;;;;23.20;14.00;;;230.40;2073.60;;;;;;4881883;29;20403;-70
2021/03/13 05:37:47;;;;;;;25.27;16.15;;;230.40;2073.60;;;;;;4881813;29;20092;-65
2021/03/13 05:40:13;;;;;;;24.63;14.65;;;230.40;2048.00;;;;;;4881835;29;20069;-65
2021/03/13 05:42:39;;;;;;;21.65;14.32;;;230.40;2048.00;;;;;;4881818;29;20041;-71
2021/03/13 05:45:07;;;;;;;15.93;11.18;;;230.40;2048.00;;;;;;4881574;29;20021;-68
2021/03/13 05:47:35;;;;;;;15.98;10.50;;;230.50;2022.40;;;;;;4881768;29;20369;-64
2021/03/13 05:50:04;;;;;;;12.65;9.35;;;230.40;2022.40;;;;;;4881711;29;20032;-72
2021/03/13 05:52:35;;;;;;;32.38;17.63;;;230.40;2048.00;;;;;;4881424;29;20032;-73
2021/03/13 05:55:03;;;;;;;59.97;27.25;;;205.70;2048.00;;;;;;4880711;29;20023;-65
2021/03/13 05:57:30;;;;;;;54.03;25.33;;;205.70;2048.00;;;;;;4881521;29;20041;-65
2021/03/13 05:59:56;;;;;;;75.65;36.45;;;205.70;2048.00;;;;;;4881389;29;20460;-75
2021/03/13 06:02:21;;;;;;;64.57;32.35;;;205.60;2048.00;;;;;;4881308;29;20037;-72
2021/03/13 06:04:50;;;;;;;62.50;28.85;;;205.60;2048.00;;;;;;4879820;29;20045;-67
2021/03/13 06:07:23;;;;;;;42.70;23.20;;;205.60;2073.60;;;;;;4879469;29;20064;-73
2021/03/13 06:09:55;;;;;;;38.72;21.25;;;205.60;2073.60;;;;;;4870460;29;20120;-69
2021/03/13 06:12:22;;;;;;;37.38;19.20;;;205.70;2048.00;;;;;;4862578;29;20098;-72
2021/03/13 06:14:52;;;;;;;39.85;18.42;;;205.70;2073.60;;;;;;4862820;29;20116;-64
2021/03/13 06:17:18;;;;;;;29.25;15.27;;;230.40;2073.60;;;;;;4862918;29;20116;-66
2021/03/13 06:19:58;;;;;;;28.23;15.88;;;230.40;2048.00;;;;;;4862534;29;20544;-63
2021/03/13 06:22:35;;;;;;;26.05;14.15;;;230.40;2048.00;;;;;;4861946;29;20029;-71
2021/03/13 06:25:13;;;;;;;22.35;12.70;;;230.40;2048.00;;;;;;4862333;29;20037;-72
2021/03/13 06:27:43;;;;;;;21.33;12.75;;;230.50;2073.60;;;;;;4861158;29;20488;-71
2021/03/13 06:30:12;;;;;;;30.50;12.90;;;230.60;2048.00;;;;;;4862695;29;20038;-63
2021/03/13 06:32:39;;;;;;;22.98;13.88;;;230.60;2048.00;;;;;;4862450;29;20040;-63
2021/03/13 06:35:25;;;;;;;28.10;13.52;;;230.70;2048.00;;;;;;4862038;29;20491;-69
2021/03/13 06:37:53;;;;;;;27.70;15.40;;;230.80;2048.00;;;;;;4862126;29;20116;-64
2021/03/13 06:40:36;;;;;;;23.38;14.18;;;230.80;2073.60;;;;;;4862095;29;20108;-72
2021/03/13 06:43:29;;;;;;;20.30;12.93;;;230.90;2073.60;;;;;;4862120;29;20032;-72
2021/03/13 06:46:07;;;;;;;15.57;10.15;;;231.00;2048.00;;;;;;4862276;29;20487;-63
2021/03/13 06:48:33;;;;;;;15.25;9.18;;;231.00;2048.00;;;;;;4861990;29;20036;-72
2021/03/13 06:51:22;;;;;;;13.95;9.07;;;231.10;2048.00;;;;;;4862082;29;20021;-71
2021/03/13 06:54:11;;;;;;;14.50;9.07;;;231.30;2048.00;;;;;;4862074;29;20052;-65
2021/03/13 06:56:41;;;;;;;12.98;8.75;;;231.30;2022.40;;;;;;4861838;29;20523;-65
2021/03/13 06:59:39;;;;;;;15.98;9.98;;;256.20;2073.60;;;;;;4861996;29;20049;-71
2021/03/13 07:02:10;;;;;;;15.55;9.27;;;256.30;2073.60;;;;;;4862027;29;20030;-68
2021/03/13 07:04:39;;;;;;;13.25;8.63;;;256.60;2022.40;;;;;;4861931;29;20120;-72
2021/03/13 07:07:06;;;;;;;13.70;8.55;;;256.90;2022.40;;;;;;4861682;29;20034;-63
2021/03/13 07:09:50;;;;;;;10.50;7.63;;;281.80;2048.00;;;;;;4861554;29;20052;-71
2021/03/13 07:12:36;;;;;;;7.95;6.03;;;282.10;2073.60;;;;;;4861839;29;20044;-73
2021/03/13 07:15:17;;;;;;;7.15;5.75;;;282.30;2048.00;;;;;;4861572;29;20059;-68
2021/03/13 07:18:03;;;;;;;10.48;6.47;;;282.50;1996.80;;;;;;4861641;29;20104;-68
2021/03/13 07:20:34;;;;;;;9.65;6.88;;;307.30;1996.80;;;;;;4861412;29;20037;-72
2021/03/13 07:23:02;;;;;;;7.20;5.03;;;307.50;1945.60;;;;;;4861502;29;20376;-69
2021/03/13 07:25:29;;;;;;;9.05;4.65;;;307.70;1945.60;;;;;;4861454;29;20469;-67
2021/03/13 07:28:02;;;;;;;9.68;6.07;;;307.90;1945.60;;;;;;4861600;29;20472;-68
2021/03/13 07:30:29;;;;;;;19.08;11.60;;;332.80;1920.00;;;;;;4861537;29;20082;-67
2021/03/13 07:33:05;;;;;;;21.98;14.18;;;332.90;1920.00;;;;;;4861586;29;20104;-68
2021/03/13 07:35:37;;;;;;;24.40;15.35;;;333.10;1920.00;;;;;;4861210;29;20053;-68
2021/03/13 07:38:07;;;;;;;45.10;24.65;;;333.30;1894.40;;;;;;4861352;29;20477;-67
2021/03/13 07:40:39;;;;;;;27.60;17.75;;;333.50;1868.80;;;;;;4861476;29;20426;-67
2021/03/13 07:43:07;;;;;;;17.67;11.00;;;333.70;1894.40;;;;;;4861290;29;20031;-68
2021/03/13 07:45:33;;;;;;;66.25;44.10;;;358.50;1894.40;;;;;;4861282;29;20084;-68
2021/03/13 07:47:59;;;;;;;58.38;39.75;;;358.60;1868.80;;;;;;4861453;29;20507;-68
2021/03/13 07:50:25;;;;;;;30.88;21.20;;;358.80;1817.60;;;;;;4861526;29;20461;-67
2021/03/13 07:52:51;;;;;;;25.83;17.48;;;358.90;1792.00;;;;;;4861096;29;20026;-67
2021/03/13 07:55:19;;;;;;;21.88;15.63;;;359.10;1766.40;;;;;;4861046;29;20022;-67
2021/03/13 07:57:46;;;;;;;20.45;14.55;;;359.20;1766.40;;;;;;4861201;29;20213;-68
2021/03/13 08:00:12;;;;;;;13.95;9.05;;;384.00;1715.20;;;;;;4861383;29;20096;-67
2021/03/13 08:02:40;;;;;;;11.80;7.78;;;384.20;1715.20;;;;;;4861290;29;20053;-67
2021/03/13 08:05:11;;;;;;;11.90;6.97;;;384.20;1689.60;;;;;;4861305;29;20026;-68
2021/03/13 08:07:55;;;;;;;9.20;6.80;;;384.40;1664.00;;;;;;4860815;29;20022;-67
2021/03/13 08:10:39;;;;;;;7.80;6.50;;;384.60;1638.40;;;;;;4861325;29;20388;-69
2021/03/13 08:13:05;;;;;;;9.57;6.63;;;384.80;1638.40;;;;;;4861147;29;20392;-67
2021/03/13 08:15:31;;;;;;;9.73;6.55;;;409.60;1638.40;;;;;;4861168;29;20415;-64
2021/03/13 08:17:57;;;;;;;10.00;6.38;;;409.80;1638.40;;;;;;4862269;29;20113;-67
2021/03/13 08:20:33;;;;;;;9.10;5.32;;;409.90;1612.80;;;;;;4864874;29;20472;-67
2021/03/13 08:23:22;;;;;;;9.93;5.55;;;410.10;1612.80;;;;;;4864610;29;20491;-68
2021/03/13 08:25:55;;;;;;;7.85;4.97;;;410.40;1561.60;;;;;;4789733;29;20035;-68
2021/03/13 08:28:49;;;;;;;7.60;4.90;;;410.50;1536.00;;;;;;4789738;29;20126;-68
2021/03/13 08:31:24;;;;;;;5.00;3.38;;;435.30;1536.00;;;;;;4789672;29;20072;-68
2021/03/13 08:33:53;;;;;;;4.93;3.90;;;435.50;1484.80;;;;;;4789547;30;20032;-65
2021/03/13 08:36:27;;;;;;;8.80;4.13;;;435.70;1484.80;;;;;;4789378;29;20082;-65
2021/03/13 08:39:07;;;;;;;7.43;5.57;;;435.90;1484.80;;;;;;4789539;30;20503;-67
2021/03/13 08:41:42;;;;;;;13.77;7.78;;;436.00;1459.20;;;;;;4789333;30;20518;-64
2021/03/13 08:44:25;;;;;;;20.75;10.95;;;436.00;1433.60;;;;;;4789359;29;20482;-68
2021/03/13 08:47:03;;;;;;;34.90;20.23;;;436.10;1433.60;;;;;;4789424;30;20130;-69
2021/03/13 08:49:29;;;;;;;99.55;63.28;;;436.00;1433.60;;;;;;4789257;30;20140;-64
2021/03/13 08:52:07;;;;;;;77.55;49.88;;;436.10;1408.00;;;;;;4789245;29;20548;-65
2021/03/13 08:54:39;;;;;;;46.38;26.90;;;460.90;1408.00;;;;;;4789170;30;20117;-65
2021/03/13 08:57:05;;;;;;;40.17;25.90;;;461.00;1408.00;;;;;;4789212;30;20130;-64
2021/03/13 08:59:32;;;;;;;32.13;18.98;;;461.20;1382.40;;;;;;4789329;30;20054;-68
2021/03/13 09:02:14;;;;;;;18.20;13.52;;;461.20;1382.40;;;;;;4801153;29;20445;-64
2021/03/13 09:04:50;;;;;;;15.88;10.15;;;461.30;1382.40;;;;;;4863864;29;20423;-69
2021/03/13 09:07:21;;;;;;;13.38;9.48;;;461.50;1382.40;;;;;;4863856;29;20033;-69
2021/03/13 09:09:47;;;;;;;11.32;8.50;;;461.60;1356.80;;;;;;4863827;29;20041;-65
2021/03/13 09:12:15;;;;;;;9.45;6.55;;;486.40;1331.20;;;;;;4863904;29;20421;-65
2021/03/13 09:14:54;;;;;;;7.75;6.40;;;486.40;1305.60;;;;;;4863787;29;20377;-65
2021/03/13 09:17:22;;;;;;;8.73;5.35;;;486.50;1305.60;;;;;;4863647;29;20026;-65
2021/03/13 09:19:49;;;;;;;6.82;5.95;;;486.60;1305.60;;;;;;4863454;29;20544;-65
2021/03/13 09:22:20;;;;;;;9.70;6.07;;;486.70;1280.00;;;;;;4863728;29;20033;-69
2021/03/13 09:24:56;;;;;;;6.57;5.63;;;486.80;1254.40;;;;;;4863187;29;20033;-69
2021/03/13 09:27:23;;;;;;;7.30;6.60;;;486.80;1228.80;;;;;;4862414;29;20025;-63
2021/03/13 09:29:53;;;;;;;7.60;6.78;;;486.80;1254.40;;;;;;4858794;29;20032;-72
2021/03/13 09:32:20;;;;;;;7.30;6.05;;;486.90;1254.40;;;;;;4862545;29;20026;-72
2021/03/13 09:34:47;;;;;;;8.93;5.72;;;487.00;1228.80;;;;;;4862364;29;20101;-72
2021/03/13 09:37:27;;;;;;;6.25;4.93;;;487.10;1228.80;;;;;;4861574;29;20037;-72
2021/03/13 09:40:10;;;;;;;5.47;4.88;;;487.20;1228.80;;;;;;4862407;29;20038;-72
2021/03/13 09:42:37;;;;;;;10.40;5.03;;;487.30;1203.20;;;;;;4862594;29;20109;-70
2021/03/13 09:45:11;;;;;;;9.07;4.68;;;487.30;1177.60;;;;;;4862480;29;20026;-67
2021/03/13 09:47:40;;;;;;;7.15;5.25;;;487.30;1177.60;;;;;;4862708;29;20033;-65
2021/03/13 09:50:14;;;;;;;8.52;5.60;;;487.30;1177.60;;;;;;4862575;29;20041;-69
2021/03/13 09:52:42;;;;;;;7.25;5.65;;;512.00;1203.20;;;;;;4862003;29;20093;-64
2021/03/13 09:55:09;;;;;;;7.63;5.72;;;512.00;1177.60;;;;;;4862666;29;20033;-73
2021/03/13 09:57:36;;;;;;;9.93;5.68;;;512.00;1177.60;;;;;;4862768;29;20437;-64
2021/03/13 10:00:06;;;;;;;10.00;6.45;;;512.00;1177.60;;;;;;4862071;29;20099;-65
2021/03/13 10:02:32;;;;;;;9.45;6.63;;;512.00;1152.00;;;;;;4862662;29;20365;-65
2021/03/13 10:04:58;;;;;;;13.05;8.23;;;512.00;1177.60;;;;;;4862523;29;20077;-65
2021/03/13 10:07:25;;;;;;;14.95;8.63;;;512.00;1177.60;;;;;;4861809;29;20128;-64
2021/03/13 10:09:52;;;;;;;13.52;7.05;;;512.00;1152.00;;;;;;4862492;29;20026;-71
2021/03/13 10:12:26;;;;;;;7.65;5.47;;;512.10;1152.00;;;;;;4862323;29;20029;-72
2021/03/13 10:14:52;;;;;;;8.40;5.72;;;512.20;1152.00;;;;;;4861630;29;20033;-72
2021/03/13 10:17:17;;;;;;;20.02;10.32;;;512.30;1152.00;;;;;;4860978;29;20033;-69
2021/03/13 10:19:44;;;;;;;17.50;9.27;;;512.40;1152.00;;;;;;4862299;29;20116;-66
2021/03/13 10:22:11;;;;;;;16.10;8.73;;;512.40;1126.40;;;;;;4861485;29;20029;-70
2021/03/13 10:24:55;;;;;;;11.80;6.60;;;512.50;1126.40;;;;;;4862216;29;20108;-65
2021/03/13 10:27:23;;;;;;;10.90;4.80;;;512.50;1100.80;;;;;;4862111;29;20036;-72
2021/03/13 10:29:57;;;;;;;5.93;4.63;;;512.50;1100.80;;;;;;4861470;29;20026;-64
2021/03/13 10:32:30;;;;;;;7.60;5.25;;;512.50;1100.80;;;;;;4862109;29;20029;-71
2021/03/13 10:35:12;;;;;;;9.10;6.40;;;512.50;1126.40;;;;;;4862632;29;20057;-69
2021/03/13 10:37:40;;;;;;;9.38;6.55;;;512.60;1100.80;;;;;;4861869;29;20021;-72
2021/03/13 10:40:08;;;;;;;8.35;5.80;;;512.50;1100.80;;;;;;4861489;29;20535;-68
2021/03/13 10:42:35;;;;;;;5.47;4.70;;;512.40;1100.80;;;;;;4861516;29;20392;-68
2021/03/13 10:45:15;;;;;;;5.93;4.68;;;512.30;1100.80;;;;;;4861453;29;20038;-64
2021/03/13 10:47:41;;;;;;;10.23;8.18;;;512.40;1100.80;;;;;;4862003;29;20037;-64
2021/03/13 10:50:07;;;;;;;8.77;7.55;;;512.50;1075.20;;;;;;4861406;29;20042;-71
2021/03/13 10:52:33;;;;;;;12.35;7.28;;;512.50;1100.80;;;;;;4861723;29;20026;-65
2021/03/13 10:54:59;;;;;;;14.55;6.60;;;512.50;1100.80;;;;;;4861728;29;20026;-67
2021/03/13 10:57:25;;;;;;;35.53;5.93;;;512.60;1075.20;;;;;;4861053;29;20034;-70
2021/03/13 10:59:50;;;;;;;8.90;4.13;;;512.60;1049.60;;;;;;4863646;29;20540;-69
2021/03/13 11:02:16;;;;;;;5.07;4.20;;;512.60;1075.20;;;;;;4880163;29;20029;-64
2021/03/13 11:04:43;;;;;;;7.53;5.95;;;512.70;1075.20;;;;;;4865014;29;20061;-66
2021/03/13 11:07:08;;;;;;;6.10;4.88;;;512.70;1075.20;;;;;;4861197;29;20441;-64
2021/03/13 11:09:35;;;;;;;5.53;4.18;;;512.80;1075.20;;;;;;4861495;29;20037;-73
2021/03/13 11:12:01;;;;;;;22.77;4.70;;;512.90;1075.20;;;;;;4861137;29;20036;-68
2021/03/13 11:14:26;;;;;;;19.13;5.93;;;512.90;1075.20;;;;;;4861144;29;20037;-74
2021/03/13 11:16:52;;;;;;;8.35;4.20;;;537.70;1100.80;;;;;;4861467;29;20037;-65
2021/03/13 11:19:18;;;;;;;13.93;5.07;;;537.70;1075.20;;;;;;4861244;29;20120;-68
2021/03/13 11:21:44;;;;;;;11.85;4.53;;;537.80;1075.20;;;;;;4860554;29;20077;-67
2021/03/13 11:24:11;;;;;;;8.52;4.97;;;537.90;1075.20;;;;;;4861121;29;20117;-69
2021/03/13 11:26:36;;;;;;;16.85;5.07;;;537.80;1075.20;;;;;;4861221;29;20452;-70
2021/03/13 11:29:05;;;;;;;13.40;4.82;;;537.80;1075.20;;;;;;4860651;29;20026;-69
2021/03/13 11:31:32;;;;;;;9.50;5.65;;;537.80;1075.20;;;;;;4860903;29;20061;-66
2021/03/13 11:33:58;;;;;;;8.45;4.85;;;537.90;1075.20;;;;;;4861084;29;20026;-67
2021/03/13 11:36:23;;;;;;;6.13;4.50;;;537.90;1075.20;;;;;;4863462;29;20044;-67
2021/03/13 11:38:49;;;;;;;5.72;3.60;;;538.00;1049.60;;;;;;4869707;29;20044;-68
2021/03/13 11:41:16;;;;;;;4.18;3.50;;;537.90;998.40;;;;;;4867835;29;20056;-74
2021/03/13 11:43:43;;;;;;;6.45;4.15;;;537.70;1024.00;;;;;;4868164;29;20037;-69
2021/03/13 11:46:10;;;;;;;4.43;4.00;;;512.70;998.40;;;;;;4867902;29;20029;-68
2021/03/13 11:48:36;;;;;;;3.78;3.42;;;512.40;1049.60;;;;;;4869697;29;20448;-71
2021/03/13 11:51:03;;;;;;;4.50;4.00;;;512.40;1075.20;;;;;;4868947;29;20032;-75
2021/03/13 11:53:28;;;;;;;6.90;4.60;;;512.50;1049.60;;;;;;4870318;29;20098;-69
2021/03/13 11:55:54;;;;;;;4.53;3.70;;;512.60;1075.20;;;;;;4873937;29;20021;-73
2021/03/13 11:58:20;;;;;;;8.50;4.00;;;512.70;1049.60;;;;;;4872228;29;20061;-73
2021/03/13 12:00:46;;;;;;;5.35;3.85;;;512.70;1024.00;;;;;;4872172;29;20044;-73
2021/03/13 12:03:11;;;;;;;4.07;3.67;;;512.70;1024.00;;;;;;4873570;29;20036;-72
2021/03/13 12:05:37;;;;;;;5.05;3.88;;;512.60;998.40;;;;;;4873230;29;20562;-68
2021/03/13 12:08:03;;;;;;;5.93;3.85;;;512.40;1024.00;;;;;;4871793;29;20030;-73
2021/03/13 12:10:29;;;;;;;5.28;3.63;;;512.20;1049.60;;;;;;4872408;29;20063;-71
2021/03/13 12:12:55;;;;;;;7.47;4.35;;;512.10;1049.60;;;;;;4873460;29;20148;-73
2021/03/13 12:15:22;;;;;;;7.90;4.72;;;512.20;1049.60;;;;;;4871454;29;20476;-72
2021/03/13 12:17:49;;;;;;;4.55;3.38;;;512.30;1049.60;;;;;;4872287;29;20035;-68
2021/03/13 12:20:15;;;;;;;5.32;4.20;;;512.40;1049.60;;;;;;4872810;29;20029;-73
2021/03/13 12:22:41;;;;;;;6.30;4.45;;;512.40;1049.60;;;;;;4871202;29;20024;-69
2021/03/13 12:25:08;;;;;;;11.05;6.15;;;512.40;1049.60;;;;;;4872784;29;20025;-73